createdAt,value
2016-04-04T00:01:19.331Z,1004.59
2016-04-04T00:04:22.979Z,1004.47
2016-04-04T00:07:32.206Z,1004.49
2016-04-04T00:10:42.105Z,1004.53
2016-04-04T00:13:54.772Z,1004.47
2016-04-04T00:17:11.155Z,1004.43
2016-04-04T00:20:18.725Z,1004.45
2016-04-04T00:23:22.405Z,1004.37
2016-04-04T00:26:32.788Z,1004.45
2016-04-04T00:29:42.546Z,1004.33
2016-04-04T00:32:54.870Z,1004.27
2016-04-04T00:36:11.393Z,1004.31
2016-04-04T00:39:19.309Z,1004.33
2016-04-04T00:42:23.003Z,1004.29
2016-04-04T00:45:35.621Z,1004.27
2016-04-04T00:48:48.503Z,1004.21
2016-04-04T00:52:01.014Z,1004.25
2016-04-04T00:55:17.835Z,1004.21
2016-04-04T00:58:21.952Z,1004.17
2016-04-04T01:01:32.788Z,1004.21
2016-04-04T01:04:43.438Z,1004.25
2016-04-04T01:07:52.727Z,1004.21
2016-04-04T01:11:02.738Z,1004.21
2016-04-04T01:14:16.402Z,1004.27
2016-04-04T01:17:20.394Z,1004.25
2016-04-04T01:20:33.152Z,1004.27
2016-04-04T01:23:45.520Z,1004.21
2016-04-04T01:26:58.075Z,1004.11
2016-04-04T01:30:12.898Z,1004.17
2016-04-04T01:33:16.954Z,1004.09
2016-04-04T01:36:26.868Z,1004.11
2016-04-04T01:39:36.141Z,1003.97
2016-04-04T01:42:49.149Z,1003.91
2016-04-04T01:46:01.659Z,1003.89
2016-04-04T01:49:18.449Z,1003.77
2016-04-04T01:52:22.472Z,1003.89
2016-04-04T01:55:32.074Z,1003.91
2016-04-04T01:58:42.848Z,1003.87
2016-04-04T02:01:52.330Z,1003.83
2016-04-04T02:05:04.778Z,1003.87
2016-04-04T02:08:17.255Z,1003.79
2016-04-04T02:11:27.357Z,1003.69
2016-04-04T02:14:37.006Z,1003.77
2016-04-04T02:17:49.748Z,1003.69
2016-04-04T02:21:02.587Z,1003.63
2016-04-04T02:24:19.158Z,1003.49
2016-04-04T02:27:23.135Z,1003.39
2016-04-04T02:30:35.955Z,1003.53
2016-04-04T02:33:48.088Z,1003.55
2016-04-04T02:36:57.627Z,1003.37
2016-04-04T02:40:12.295Z,1003.3
2016-04-04T02:43:20.193Z,1003.19
2016-04-04T02:46:24.123Z,1003.03
2016-04-04T02:49:36.866Z,1003.03
2016-04-04T02:52:49.530Z,1003.07
2016-04-04T02:56:00.366Z,1003.19
2016-04-04T02:59:17.064Z,1003.25
2016-04-04T03:02:20.854Z,1003.34
2016-04-04T03:05:31.346Z,1003.25
2016-04-04T03:08:40.207Z,1003.41
2016-04-04T03:11:49.137Z,1003.51
2016-04-04T03:15:01.363Z,1003.49
2016-04-04T03:18:18.234Z,1003.37
2016-04-04T03:21:22.039Z,1003.39
2016-04-04T03:24:34.062Z,1003.37
2016-04-04T03:27:46.070Z,1003.43
2016-04-04T03:30:56.859Z,1003.45
2016-04-04T03:34:06.183Z,1003.39
2016-04-04T03:37:18.707Z,1003.45
2016-04-04T03:40:30.965Z,1003.51
2016-04-04T03:43:40.926Z,1003.47
2016-04-04T03:46:53.685Z,1003.41
2016-04-04T03:50:05.146Z,1003.47
2016-04-04T03:53:17.640Z,1003.57
2016-04-04T03:56:28.804Z,1003.37
2016-04-04T03:59:40.219Z,1003.32
2016-04-04T04:02:54.117Z,1003.23
2016-04-04T04:06:10.895Z,1003.09
2016-04-04T04:09:18.887Z,1003.09
2016-04-04T04:12:22.677Z,1003.01
2016-04-04T04:15:35.310Z,1003.13
2016-04-04T04:18:45.364Z,1003.05
2016-04-04T04:21:57.467Z,1003.07
2016-04-04T04:25:13.930Z,1002.97
2016-04-04T04:28:17.705Z,1003.03
2016-04-04T04:31:29.587Z,1003.15
2016-04-04T04:34:42.423Z,1003.03
2016-04-04T04:37:53.040Z,1003.17
2016-04-04T04:41:04.003Z,1003.01
2016-04-04T04:44:19.278Z,1002.97
2016-04-04T04:47:23.099Z,1002.97
2016-04-04T04:50:34.216Z,1002.91
2016-04-04T04:53:46.724Z,1002.93
2016-04-04T04:56:56.779Z,1002.88
2016-04-04T05:00:13.415Z,1002.95
2016-04-04T05:03:17.315Z,1002.89
2016-04-04T05:06:30.025Z,1003.05
2016-04-04T05:09:41.064Z,1002.99
2016-04-04T05:12:51.104Z,1002.95
2016-04-04T05:16:03.940Z,1002.93
2016-04-04T05:19:18.529Z,1002.99
2016-04-04T05:22:21.177Z,1002.95
2016-04-04T05:25:34.966Z,1002.88
2016-04-04T05:28:46.193Z,1002.88
2016-04-04T05:31:55.905Z,1002.86
2016-04-04T05:35:12.728Z,1002.88
2016-04-04T05:38:20.705Z,1002.88
2016-04-04T05:41:24.478Z,1002.86
2016-04-04T05:44:35.189Z,1002.86
2016-04-04T05:47:47.979Z,1002.97
2016-04-04T05:50:56.847Z,1002.86
2016-04-04T05:54:14.858Z,1003.01
2016-04-04T05:57:18.835Z,1002.88
2016-04-04T06:00:28.170Z,1002.88
2016-04-04T06:03:39.662Z,1002.8
2016-04-04T06:06:53.921Z,1002.8
2016-04-04T06:10:03.460Z,1002.82
2016-04-04T06:13:19.642Z,1002.78
2016-04-04T06:16:23.760Z,1002.78
2016-04-04T06:19:33.628Z,1002.78
2016-04-04T06:22:46.386Z,1002.64
2016-04-04T06:25:58.159Z,1002.6
2016-04-04T06:29:14.171Z,1002.54
2016-04-04T06:32:17.068Z,1002.56
2016-04-04T06:35:31.123Z,1002.56
2016-04-04T06:38:41.195Z,1002.48
2016-04-04T06:41:51.031Z,1002.6
2016-04-04T06:45:00.367Z,1002.6
2016-04-04T06:48:17.284Z,1002.36
2016-04-04T06:51:21.416Z,1002.44
2016-04-04T06:54:30.534Z,1002.54
2016-04-04T06:57:43.074Z,1002.52
2016-04-04T07:00:53.712Z,1002.44
2016-04-04T07:04:04.938Z,1002.42
2016-04-04T07:07:18.965Z,1002.58
2016-04-04T07:10:23.144Z,1002.5
2016-04-04T07:13:35.699Z,1002.56
2016-04-04T07:16:48.707Z,1002.44
2016-04-04T07:19:59.747Z,1002.32
2016-04-04T07:23:16.602Z,1002.4
2016-04-04T07:26:20.860Z,1002.52
2016-04-04T07:29:33.226Z,1002.54
2016-04-04T07:32:44.173Z,1002.62
2016-04-04T07:35:55.633Z,1002.5
2016-04-04T07:39:14.160Z,1002.38
2016-04-04T07:42:18.495Z,1002.5
2016-04-04T07:45:32.051Z,1002.5
2016-04-04T07:48:42.919Z,1002.4
2016-04-04T07:51:54.380Z,1002.3
2016-04-04T07:55:11.780Z,1002.28
2016-04-04T07:58:20.618Z,1002.2
2016-04-04T08:01:25.156Z,1002.26
2016-04-04T08:04:35.118Z,1002.38
2016-04-04T08:07:47.970Z,1002.38
2016-04-04T08:10:58.806Z,1002.36
2016-04-04T08:14:12.347Z,1002.32
2016-04-04T08:17:20.450Z,1002.4
2016-04-04T08:20:24.723Z,1002.46
2016-04-04T08:23:37.810Z,1002.22
2016-04-04T08:26:48.896Z,1002.3
2016-04-04T08:30:00.311Z,1001.94
2016-04-04T08:33:16.327Z,1001.92
2016-04-04T08:36:20.971Z,1001.92
2016-04-04T08:39:34.457Z,1001.96
2016-04-04T08:42:47.437Z,1002.02
2016-04-04T08:45:57.581Z,1001.96
2016-04-04T08:49:15.243Z,1001.58
2016-04-04T08:52:20.327Z,1001.54
2016-04-04T08:55:33.881Z,1001.45
2016-04-04T08:58:48.185Z,1001.37
2016-04-04T09:01:58.958Z,1001.6
2016-04-04T09:05:16.485Z,1001.48
2016-04-04T09:08:21.462Z,1001.64
2016-04-04T09:11:32.829Z,1001.74
2016-04-04T09:14:46.571Z,1001.35
2016-04-04T09:18:00.986Z,1000.91
2016-04-04T09:21:19.293Z,1000.95
2016-04-04T09:24:26.286Z,1001.13
2016-04-04T09:27:39.981Z,1001.31
2016-04-04T09:30:52.317Z,1001.48
2016-04-04T09:34:06.747Z,1001.6
2016-04-04T09:37:18.446Z,1001.88
2016-04-04T09:40:31.844Z,1001.84
2016-04-04T09:43:42.727Z,1001.84
2016-04-04T09:46:54.970Z,1001.98
2016-04-04T09:50:12.666Z,1001.78
2016-04-04T09:53:21.691Z,1001.88
2016-04-04T09:56:26.528Z,1001.8
2016-04-04T09:59:35.786Z,1001.86
2016-04-04T10:02:46.998Z,1001.88
2016-04-04T10:05:59.396Z,1001.74
2016-04-04T10:09:16.297Z,1001.68
2016-04-04T10:12:20.342Z,1001.76
2016-04-04T10:15:35.068Z,1001.86
2016-04-04T10:18:47.748Z,1001.76
2016-04-04T10:22:02.397Z,1001.72
2016-04-04T10:25:17.736Z,1001.74
2016-04-04T10:28:24.010Z,1001.6
2016-04-04T10:31:38.893Z,1001.62
2016-04-04T10:34:51.902Z,1001.64
2016-04-04T10:38:06.627Z,1001.62
2016-04-04T10:41:21.263Z,1001.6
2016-04-04T10:44:34.099Z,1001.56
2016-04-04T10:47:48.889Z,1001.58
2016-04-04T10:51:03.709Z,1001.41
2016-04-04T10:54:19.220Z,1001.41
2016-04-04T10:57:25.603Z,1001.43
2016-04-04T11:00:40.611Z,1001.43
2016-04-04T11:03:55.666Z,1001.31
2016-04-04T11:07:13.034Z,1001.25
2016-04-04T11:10:19.242Z,1001.31
2016-04-04T11:13:34.047Z,1001.27
2016-04-04T11:16:48.805Z,1001.37
2016-04-04T11:20:02.578Z,1001.31
2016-04-04T11:23:21.464Z,1001.33
2016-04-04T11:26:27.628Z,1001.31
2016-04-04T11:29:40.449Z,1001.27
2016-04-04T11:32:55.238Z,1001.33
2016-04-04T11:36:13.996Z,1001.29
2016-04-04T11:39:20.200Z,1001.31
2016-04-04T11:42:32.020Z,1001.13
2016-04-04T11:45:43.794Z,1001.27
2016-04-04T11:48:58.755Z,1001.11
2016-04-04T11:52:16.360Z,1001.15
2016-04-04T11:55:22.493Z,1001.21
2016-04-04T11:58:37.047Z,1001.23
2016-04-04T12:01:52.024Z,1001.21
2016-04-04T12:05:06.673Z,1001.15
2016-04-04T12:08:22.042Z,1001.21
2016-04-04T12:11:28.317Z,1001.19
2016-04-04T12:14:43.059Z,1001.15
2016-04-04T12:17:55.505Z,1001.09
2016-04-04T12:21:14.154Z,1001.05
2016-04-04T12:24:20.524Z,1001.11
2016-04-04T12:27:33.110Z,1001.09
2016-04-04T12:30:46.602Z,1001.03
2016-04-04T12:33:58.173Z,1001.03
2016-04-04T12:40:24.395Z,1001.05
2016-04-04T12:43:39.168Z,1000.93
2016-04-04T12:46:53.833Z,1000.99
2016-04-04T12:50:08.747Z,1000.99
2016-04-04T12:53:23.663Z,1000.99
2016-04-04T12:56:36.077Z,1000.99
2016-04-04T12:59:49.336Z,1000.93
2016-04-04T13:03:02.673Z,1000.93
2016-04-04T13:06:19.465Z,1000.93
2016-04-04T13:09:25.770Z,1000.75
2016-04-04T13:12:38.356Z,1000.83
2016-04-04T13:15:52.301Z,1000.79
2016-04-04T13:19:05.450Z,1000.77
2016-04-04T13:22:20.085Z,1000.79
2016-04-04T13:25:33.625Z,1000.73
2016-04-04T13:28:49.477Z,1000.69
2016-04-04T13:32:04.172Z,1000.59
2016-04-04T13:35:22.887Z,1000.57
2016-04-04T13:38:29.020Z,1000.63
2016-04-04T13:41:42.214Z,1000.65
2016-04-04T13:44:56.317Z,1000.67
2016-04-04T13:48:13.559Z,1000.65
2016-04-04T13:51:19.555Z,1000.69
2016-04-04T13:54:32.000Z,1000.63
2016-04-04T13:57:46.633Z,1000.69
2016-04-04T14:00:59.329Z,1000.75
2016-04-04T14:04:17.324Z,1000.69
2016-04-04T14:07:23.301Z,1000.57
2016-04-04T14:10:37.590Z,1000.55
2016-04-04T14:13:51.504Z,1000.63
2016-04-04T14:17:05.043Z,1000.65
2016-04-04T14:20:20.914Z,1000.55
2016-04-04T14:23:26.547Z,1000.53
2016-04-04T14:26:40.867Z,1000.55
2016-04-04T14:29:55.047Z,1000.53
2016-04-04T14:33:09.180Z,1000.45
2016-04-04T14:36:19.410Z,1000.53
2016-04-04T14:39:36.309Z,1000.55
2016-04-04T14:42:45.910Z,1000.53
2016-04-04T14:46:00.575Z,1000.53
2016-04-04T14:49:16.270Z,1000.55
2016-04-04T14:52:22.219Z,1000.59
2016-04-04T14:55:34.148Z,1000.61
2016-04-04T14:58:45.641Z,1000.59
2016-04-04T15:01:57.399Z,1000.63
2016-04-04T15:05:15.876Z,1000.73
2016-04-04T15:08:22.058Z,1000.69
2016-04-04T15:11:33.613Z,1000.69
2016-04-04T15:14:48.324Z,1000.67
2016-04-04T15:18:01.911Z,1000.59
2016-04-04T15:21:19.702Z,1000.67
2016-04-04T15:24:24.758Z,1000.63
2016-04-04T15:27:39.375Z,1000.59
2016-04-04T15:30:52.742Z,1000.69
2016-04-04T15:34:07.438Z,1000.69
2016-04-04T15:37:22.105Z,1000.75
2016-04-04T15:40:36.551Z,1000.73
2016-04-04T15:43:49.574Z,1000.67
2016-04-04T15:47:02.192Z,1000.81
2016-04-04T15:50:20.687Z,1000.77
2016-04-04T15:53:26.633Z,1000.81
2016-04-04T15:56:39.546Z,1000.75
2016-04-04T15:59:54.039Z,1000.83
2016-04-04T16:03:05.438Z,1000.79
2016-04-04T16:06:21.885Z,1000.75
2016-04-04T16:09:27.665Z,1000.81
2016-04-04T16:12:39.657Z,1000.77
2016-04-04T16:15:51.165Z,1000.83
2016-04-04T16:19:05.611Z,1000.93
2016-04-04T16:22:20.465Z,1000.87
2016-04-04T16:25:25.989Z,1000.91
2016-04-04T16:28:39.138Z,1000.91
2016-04-04T16:31:51.239Z,1000.97
2016-04-04T16:35:04.513Z,1001.01
2016-04-04T16:38:20.258Z,1001.09
2016-04-04T16:41:25.376Z,1001.03
2016-04-04T16:44:38.634Z,1001.07
2016-04-04T16:47:50.704Z,1001.13
2016-04-04T16:51:03.056Z,1001.11
2016-04-04T16:54:21.598Z,1001.15
2016-04-04T16:57:27.169Z,1001.13
2016-04-04T17:00:38.332Z,1001.15
2016-04-04T17:03:49.513Z,1001.19
2016-04-04T17:07:02.427Z,1001.23
2016-04-04T17:10:20.188Z,1001.27
2016-04-04T17:13:25.821Z,1001.23
2016-04-04T17:16:37.958Z,1001.31
2016-04-04T17:19:52.388Z,1001.35
2016-04-04T17:23:06.880Z,1001.33
2016-04-04T17:26:22.954Z,1001.31
2016-04-04T17:29:28.899Z,1001.39
2016-04-04T17:32:43.564Z,1001.33
2016-04-04T17:35:57.915Z,1001.43
2016-04-04T17:39:16.409Z,1001.43
2016-04-04T17:42:22.361Z,1001.45
2016-04-04T17:45:34.318Z,1001.48
2016-04-04T17:48:48.712Z,1001.45
2016-04-04T17:52:01.478Z,1001.54
2016-04-04T17:55:19.980Z,1001.43
2016-04-04T17:58:25.722Z,1001.54
2016-04-04T18:01:40.307Z,1001.64
2016-04-04T18:04:54.143Z,1001.68
2016-04-04T18:08:08.635Z,1001.66
2016-04-04T18:11:20.942Z,1001.58
2016-04-04T18:14:35.326Z,1001.72
2016-04-04T18:17:49.568Z,1001.72
2016-04-04T18:21:01.279Z,1001.72
2016-04-04T18:24:19.009Z,1001.76
2016-04-04T18:27:25.145Z,1001.84
2016-04-04T18:30:37.590Z,1001.84
2016-04-04T18:33:51.833Z,1001.92
2016-04-04T18:37:04.669Z,1001.74
2016-04-04T18:40:21.317Z,1001.8
2016-04-04T18:43:27.031Z,1001.86
2016-04-04T18:46:38.086Z,1001.94
2016-04-04T18:49:50.813Z,1001.86
2016-04-04T18:53:03.102Z,1001.9
2016-04-04T18:56:17.643Z,1001.76
2016-04-04T18:59:23.059Z,1001.88
2016-04-04T19:02:37.207Z,1001.8
2016-04-04T19:05:49.434Z,1001.76
2016-04-04T19:09:02.348Z,1001.7
2016-04-04T19:12:19.279Z,1001.74
2016-04-04T19:15:24.864Z,1001.66
2016-04-04T19:18:39.125Z,1001.58
2016-04-04T19:21:52.759Z,1001.6
2016-04-04T19:25:06.924Z,1001.56
2016-04-04T19:28:20.853Z,1001.56
2016-04-04T19:31:33.379Z,1001.6
2016-04-04T19:34:47.357Z,1001.58
2016-04-04T19:38:01.365Z,1001.52
2016-04-04T19:41:19.356Z,1001.62
2016-04-04T19:44:24.568Z,1001.74
2016-04-04T19:47:38.610Z,1001.8
2016-04-04T19:50:51.993Z,1001.9
2016-04-04T19:54:05.891Z,1001.76
2016-04-04T19:57:20.571Z,1001.76
2016-04-04T20:00:25.799Z,1001.72
2016-04-04T20:03:37.357Z,1001.8
2016-04-04T20:06:50.802Z,1001.88
2016-04-04T20:10:04.809Z,1001.9
2016-04-04T20:13:48.681Z,1001.84
2016-04-04T20:17:00.423Z,1001.78
2016-04-04T20:20:16.946Z,1001.78
2016-04-04T20:23:22.267Z,1001.84
2016-04-04T20:26:32.934Z,1001.78
2016-04-04T20:29:43.958Z,1001.88
2016-04-04T20:32:54.996Z,1001.98
2016-04-04T20:36:05.927Z,1001.94
2016-04-04T20:39:20.715Z,1002
2016-04-04T20:42:25.881Z,1002.06
2016-04-04T20:45:39.734Z,1001.92
2016-04-04T20:48:53.477Z,1001.88
2016-04-04T20:52:04.220Z,1001.92
2016-04-04T20:55:19.431Z,1001.88
2016-04-04T20:58:24.580Z,1001.86
2016-04-04T21:01:37.778Z,1001.9
2016-04-04T21:04:51.536Z,1001.92
2016-04-04T21:08:05.248Z,1001.96
2016-04-04T21:11:23.307Z,1001.88
2016-04-04T21:14:28.550Z,1001.82
2016-04-04T21:17:42.168Z,1001.82
2016-04-04T21:20:54.756Z,1001.84
2016-04-04T21:24:09.733Z,1001.8
2016-04-04T21:27:23.913Z,1001.82
2016-04-04T21:30:36.390Z,1001.76
2016-04-04T21:33:46.901Z,1001.82
2016-04-04T21:37:00.893Z,1001.76
2016-04-04T21:40:12.042Z,1001.82
2016-04-04T21:43:25.487Z,1001.82
2016-04-04T21:46:39.120Z,1001.8
2016-04-04T21:49:52.647Z,1001.82
2016-04-04T21:53:06.655Z,1001.7
2016-04-04T21:56:24.741Z,1001.76
2016-04-04T21:59:30.077Z,1001.82
2016-04-04T22:02:42.382Z,1001.74
2016-04-04T22:05:54.268Z,1001.74
2016-04-04T22:09:06.182Z,1001.76
2016-04-04T22:12:21.174Z,1001.8
2016-04-04T22:15:26.557Z,1001.84
2016-04-04T22:18:40.690Z,1001.84
2016-04-04T22:21:54.498Z,1001.84
2016-04-04T22:25:05.100Z,1001.88
2016-04-04T22:28:23.108Z,1001.9
2016-04-04T22:31:28.382Z,1001.74
2016-04-04T22:34:42.124Z,1001.8
2016-04-04T22:37:55.854Z,1001.78
2016-04-04T22:41:09.831Z,1001.78
2016-04-04T22:44:23.777Z,1001.7
2016-04-04T22:47:37.565Z,1001.74
2016-04-04T22:50:51.264Z,1001.62
2016-04-04T22:54:04.959Z,1001.62
2016-04-04T22:57:21.749Z,1001.62
2016-04-04T23:00:26.694Z,1001.58
2016-04-04T23:03:37.483Z,1001.62
2016-04-04T23:06:48.634Z,1001.7
2016-04-04T23:10:01.909Z,1001.74
2016-04-04T23:13:13.463Z,1001.66
2016-04-04T23:16:26.534Z,1001.66
2016-04-04T23:19:39.526Z,1001.78
2016-04-04T23:22:50.303Z,1001.82
2016-04-04T23:26:03.373Z,1001.84
2016-04-04T23:29:20.335Z,1001.76
2016-04-04T23:32:24.718Z,1001.76
2016-04-04T23:35:35.054Z,1001.58
2016-04-04T23:38:48.112Z,1001.62
2016-04-04T23:41:59.260Z,1001.62
2016-04-04T23:45:11.081Z,1001.54
2016-04-04T23:48:25.104Z,1001.54
2016-04-04T23:51:38.237Z,1001.48
2016-04-04T23:54:48.608Z,1001.41
2016-04-04T23:58:01.834Z,1001.41
